Terminal Aerodrome Forecast
Issued by NWS

Home | Current Version | Previous Version | Text Only | Print | Product List | Glossary On
Versions: 1 2 3 4 5 6 7 8 9 10 11 12 13 14 15 16 17
070
FTUS44 KTSA 181737
TAFFYV
TAF
KFYV 181737Z 1818/1918 30022G30KT P6SM VCSH BKN030
      TEMPO 1818/1821 5SM -RA BR BKN012
     FM182100 32014G24KT P6SM BKN050
     FM190000 32009KT P6SM SKC=

USA.gov is the U.S. government's official web portal to all federal, state and local government web resources and services.